sensor_id;sensor_type;location;lat;lon;timestamp;P1;durP1;ratioP1;P2;durP2;ratioP2
45522;SDS011;31254;51.680;5.394;2023-12-07T00:01:59;11.23;;;7.85;;
45522;SDS011;31254;51.680;5.394;2023-12-07T00:04:25;12.00;;;8.02;;
45522;SDS011;31254;51.680;5.394;2023-12-07T00:06:52;11.60;;;8.30;;
45522;SDS011;31254;51.680;5.394;2023-12-07T00:09:18;11.82;;;7.95;;
45522;SDS011;31254;51.680;5.394;2023-12-07T00:11:45;12.63;;;8.40;;
45522;SDS011;31254;51.680;5.394;2023-12-07T00:14:12;11.63;;;8.00;;
45522;SDS011;31254;51.680;5.394;2023-12-07T00:16:38;11.50;;;8.50;;
45522;SDS011;31254;51.680;5.394;2023-12-07T00:19:05;10.80;;;8.02;;
45522;SDS011;31254;51.680;5.394;2023-12-07T00:21:31;11.52;;;7.85;;
45522;SDS011;31254;51.680;5.394;2023-12-07T00:23:58;12.65;;;7.93;;
45522;SDS011;31254;51.680;5.394;2023-12-07T00:26:24;12.10;;;8.23;;
45522;SDS011;31254;51.680;5.394;2023-12-07T00:28:51;9.13;;;7.50;;
45522;SDS011;31254;51.680;5.394;2023-12-07T00:31:17;12.65;;;9.13;;
45522;SDS011;31254;51.680;5.394;2023-12-07T00:33:44;11.10;;;8.00;;
45522;SDS011;31254;51.680;5.394;2023-12-07T00:36:12;10.95;;;8.38;;
45522;SDS011;31254;51.680;5.394;2023-12-07T00:38:38;11.00;;;8.27;;
45522;SDS011;31254;51.680;5.394;2023-12-07T00:41:05;13.02;;;8.65;;
45522;SDS011;31254;51.680;5.394;2023-12-07T00:43:32;13.82;;;8.50;;
45522;SDS011;31254;51.680;5.394;2023-12-07T00:45:58;11.82;;;8.65;;
45522;SDS011;31254;51.680;5.394;2023-12-07T00:48:26;11.07;;;8.40;;
45522;SDS011;31254;51.680;5.394;2023-12-07T00:50:52;12.10;;;8.33;;
45522;SDS011;31254;51.680;5.394;2023-12-07T00:53:19;10.87;;;7.93;;
45522;SDS011;31254;51.680;5.394;2023-12-07T00:55:45;11.53;;;8.57;;
45522;SDS011;31254;51.680;5.394;2023-12-07T00:58:12;14.10;;;8.40;;
45522;SDS011;31254;51.680;5.394;2023-12-07T01:00:40;12.67;;;9.37;;
45522;SDS011;31254;51.680;5.394;2023-12-07T01:03:06;12.73;;;8.53;;
45522;SDS011;31254;51.680;5.394;2023-12-07T01:05:33;9.97;;;8.03;;
45522;SDS011;31254;51.680;5.394;2023-12-07T01:08:00;12.45;;;8.75;;
45522;SDS011;31254;51.680;5.394;2023-12-07T01:10:27;11.88;;;8.73;;
45522;SDS011;31254;51.680;5.394;2023-12-07T01:12:53;11.00;;;8.40;;
45522;SDS011;31254;51.680;5.394;2023-12-07T01:15:20;12.37;;;8.10;;
45522;SDS011;31254;51.680;5.394;2023-12-07T01:17:46;11.63;;;8.60;;
45522;SDS011;31254;51.680;5.394;2023-12-07T01:20:13;13.07;;;10.03;;
45522;SDS011;31254;51.680;5.394;2023-12-07T01:22:40;12.10;;;9.10;;
45522;SDS011;31254;51.680;5.394;2023-12-07T01:25:12;13.93;;;9.18;;
45522;SDS011;31254;51.680;5.394;2023-12-07T01:27:40;12.00;;;9.00;;
45522;SDS011;31254;51.680;5.394;2023-12-07T01:30:07;12.02;;;8.93;;
45522;SDS011;31254;51.680;5.394;2023-12-07T01:32:34;11.23;;;8.85;;
45522;SDS011;31254;51.680;5.394;2023-12-07T01:35:01;12.00;;;8.25;;
45522;SDS011;31254;51.680;5.394;2023-12-07T01:37:28;14.03;;;8.80;;
45522;SDS011;31254;51.680;5.394;2023-12-07T01:39:55;10.47;;;8.07;;
45522;SDS011;31254;51.680;5.394;2023-12-07T01:42:23;11.63;;;8.63;;
45522;SDS011;31254;51.680;5.394;2023-12-07T01:44:50;13.02;;;9.25;;
45522;SDS011;31254;51.680;5.394;2023-12-07T01:47:16;11.30;;;8.40;;
45522;SDS011;31254;51.680;5.394;2023-12-07T01:49:43;14.32;;;8.65;;
45522;SDS011;31254;51.680;5.394;2023-12-07T01:52:09;11.87;;;8.90;;
45522;SDS011;31254;51.680;5.394;2023-12-07T01:54:37;10.80;;;8.43;;
45522;SDS011;31254;51.680;5.394;2023-12-07T01:57:04;11.17;;;8.60;;
45522;SDS011;31254;51.680;5.394;2023-12-07T01:59:31;14.20;;;8.47;;
45522;SDS011;31254;51.680;5.394;2023-12-07T02:01:58;13.70;;;9.33;;
45522;SDS011;31254;51.680;5.394;2023-12-07T02:04:25;14.80;;;8.87;;
45522;SDS011;31254;51.680;5.394;2023-12-07T02:06:53;13.63;;;8.70;;
45522;SDS011;31254;51.680;5.394;2023-12-07T02:09:23;11.60;;;8.70;;
45522;SDS011;31254;51.680;5.394;2023-12-07T02:11:50;12.97;;;8.40;;
45522;SDS011;31254;51.680;5.394;2023-12-07T02:14:16;13.47;;;9.10;;
45522;SDS011;31254;51.680;5.394;2023-12-07T02:16:48;14.90;;;9.17;;
45522;SDS011;31254;51.680;5.394;2023-12-07T02:22:25;13.10;;;8.60;;
45522;SDS011;31254;51.680;5.394;2023-12-07T02:27:42;13.73;;;8.93;;
45522;SDS011;31254;51.680;5.394;2023-12-07T02:30:12;13.57;;;9.13;;
45522;SDS011;31254;51.680;5.394;2023-12-07T02:32:40;11.60;;;8.80;;
45522;SDS011;31254;51.680;5.394;2023-12-07T02:35:08;13.80;;;9.33;;
45522;SDS011;31254;51.680;5.394;2023-12-07T02:37:45;14.03;;;9.40;;
45522;SDS011;31254;51.680;5.394;2023-12-07T02:40:17;12.73;;;8.80;;
45522;SDS011;31254;51.680;5.394;2023-12-07T02:42:48;14.63;;;10.13;;
45522;SDS011;31254;51.680;5.394;2023-12-07T02:45:15;14.27;;;9.20;;
45522;SDS011;31254;51.680;5.394;2023-12-07T02:47:42;13.17;;;9.07;;
45522;SDS011;31254;51.680;5.394;2023-12-07T02:50:12;13.93;;;9.33;;
45522;SDS011;31254;51.680;5.394;2023-12-07T02:52:39;12.67;;;8.40;;
45522;SDS011;31254;51.680;5.394;2023-12-07T02:55:06;12.73;;;8.67;;
45522;SDS011;31254;51.680;5.394;2023-12-07T02:57:33;15.63;;;9.63;;
45522;SDS011;31254;51.680;5.394;2023-12-07T03:00:00;13.83;;;9.23;;
45522;SDS011;31254;51.680;5.394;2023-12-07T03:02:27;16.47;;;9.70;;
45522;SDS011;31254;51.680;5.394;2023-12-07T03:04:53;14.10;;;9.27;;
45522;SDS011;31254;51.680;5.394;2023-12-07T03:07:20;17.50;;;9.73;;
45522;SDS011;31254;51.680;5.394;2023-12-07T03:09:46;19.03;;;10.17;;
45522;SDS011;31254;51.680;5.394;2023-12-07T03:12:13;19.40;;;10.70;;
45522;SDS011;31254;51.680;5.394;2023-12-07T03:14:39;14.37;;;8.97;;
45522;SDS011;31254;51.680;5.394;2023-12-07T03:17:06;14.53;;;9.60;;
45522;SDS011;31254;51.680;5.394;2023-12-07T03:19:33;17.17;;;10.70;;
45522;SDS011;31254;51.680;5.394;2023-12-07T03:22:03;17.47;;;10.47;;
45522;SDS011;31254;51.680;5.394;2023-12-07T03:24:30;15.83;;;10.17;;
45522;SDS011;31254;51.680;5.394;2023-12-07T03:26:57;17.13;;;10.70;;
45522;SDS011;31254;51.680;5.394;2023-12-07T03:29:23;17.00;;;11.00;;
45522;SDS011;31254;51.680;5.394;2023-12-07T03:31:50;15.03;;;10.07;;
45522;SDS011;31254;51.680;5.394;2023-12-07T03:34:16;14.40;;;10.20;;
45522;SDS011;31254;51.680;5.394;2023-12-07T03:36:46;13.97;;;9.20;;
45522;SDS011;31254;51.680;5.394;2023-12-07T03:39:14;14.50;;;10.20;;
45522;SDS011;31254;51.680;5.394;2023-12-07T03:41:41;14.70;;;9.93;;
45522;SDS011;31254;51.680;5.394;2023-12-07T03:44:08;16.07;;;10.40;;
45522;SDS011;31254;51.680;5.394;2023-12-07T03:46:34;18.03;;;10.70;;
45522;SDS011;31254;51.680;5.394;2023-12-07T03:49:01;16.87;;;10.33;;
45522;SDS011;31254;51.680;5.394;2023-12-07T03:51:28;16.17;;;10.97;;
45522;SDS011;31254;51.680;5.394;2023-12-07T03:53:55;15.43;;;10.83;;
45522;SDS011;31254;51.680;5.394;2023-12-07T03:56:25;14.13;;;9.90;;
45522;SDS011;31254;51.680;5.394;2023-12-07T03:58:53;17.17;;;10.97;;
45522;SDS011;31254;51.680;5.394;2023-12-07T04:01:26;15.97;;;10.50;;
45522;SDS011;31254;51.680;5.394;2023-12-07T04:03:57;16.57;;;11.10;;
45522;SDS011;31254;51.680;5.394;2023-12-07T04:06:27;14.67;;;10.60;;
45522;SDS011;31254;51.680;5.394;2023-12-07T04:08:53;16.40;;;9.87;;
45522;SDS011;31254;51.680;5.394;2023-12-07T04:11:20;17.73;;;11.00;;
45522;SDS011;31254;51.680;5.394;2023-12-07T04:13:47;17.03;;;11.17;;
45522;SDS011;31254;51.680;5.394;2023-12-07T04:16:14;16.40;;;11.80;;
45522;SDS011;31254;51.680;5.394;2023-12-07T04:18:41;17.10;;;11.00;;
45522;SDS011;31254;51.680;5.394;2023-12-07T04:21:08;17.00;;;10.93;;
45522;SDS011;31254;51.680;5.394;2023-12-07T04:23:34;16.17;;;11.23;;
45522;SDS011;31254;51.680;5.394;2023-12-07T04:26:01;18.03;;;12.03;;
45522;SDS011;31254;51.680;5.394;2023-12-07T04:28:28;18.27;;;14.18;;
45522;SDS011;31254;51.680;5.394;2023-12-07T04:30:54;18.42;;;12.43;;
45522;SDS011;31254;51.680;5.394;2023-12-07T04:33:21;17.98;;;11.70;;
45522;SDS011;31254;51.680;5.394;2023-12-07T04:35:48;17.73;;;11.73;;
45522;SDS011;31254;51.680;5.394;2023-12-07T04:38:15;17.00;;;11.40;;
45522;SDS011;31254;51.680;5.394;2023-12-07T04:40:41;17.33;;;11.73;;
45522;SDS011;31254;51.680;5.394;2023-12-07T04:43:08;20.87;;;12.20;;
45522;SDS011;31254;51.680;5.394;2023-12-07T04:45:35;17.57;;;11.40;;
45522;SDS011;31254;51.680;5.394;2023-12-07T04:48:02;17.73;;;11.80;;
45522;SDS011;31254;51.680;5.394;2023-12-07T04:50:30;17.07;;;11.40;;
45522;SDS011;31254;51.680;5.394;2023-12-07T04:52:57;19.23;;;11.70;;
45522;SDS011;31254;51.680;5.394;2023-12-07T04:55:23;16.67;;;11.93;;
45522;SDS011;31254;51.680;5.394;2023-12-07T04:57:50;17.23;;;11.53;;
45522;SDS011;31254;51.680;5.394;2023-12-07T05:00:17;18.97;;;11.83;;
45522;SDS011;31254;51.680;5.394;2023-12-07T05:02:44;19.53;;;13.27;;
45522;SDS011;31254;51.680;5.394;2023-12-07T05:05:10;19.47;;;12.73;;
45522;SDS011;31254;51.680;5.394;2023-12-07T05:07:38;20.87;;;12.80;;
45522;SDS011;31254;51.680;5.394;2023-12-07T05:10:05;19.70;;;12.77;;
45522;SDS011;31254;51.680;5.394;2023-12-07T05:12:32;19.13;;;12.73;;
45522;SDS011;31254;51.680;5.394;2023-12-07T05:14:59;21.57;;;13.10;;
45522;SDS011;31254;51.680;5.394;2023-12-07T05:17:25;20.47;;;13.37;;
45522;SDS011;31254;51.680;5.394;2023-12-07T05:19:52;22.93;;;13.30;;
45522;SDS011;31254;51.680;5.394;2023-12-07T05:22:18;23.13;;;14.30;;
45522;SDS011;31254;51.680;5.394;2023-12-07T05:24:45;20.23;;;13.23;;
45522;SDS011;31254;51.680;5.394;2023-12-07T05:27:12;21.00;;;12.70;;
45522;SDS011;31254;51.680;5.394;2023-12-07T05:29:38;22.37;;;13.77;;
45522;SDS011;31254;51.680;5.394;2023-12-07T05:32:05;20.80;;;12.60;;
45522;SDS011;31254;51.680;5.394;2023-12-07T05:34:32;21.67;;;13.47;;
45522;SDS011;31254;51.680;5.394;2023-12-07T05:37:00;19.20;;;12.20;;
45522;SDS011;31254;51.680;5.394;2023-12-07T05:39:26;19.43;;;12.77;;
45522;SDS011;31254;51.680;5.394;2023-12-07T05:41:53;20.10;;;12.60;;
45522;SDS011;31254;51.680;5.394;2023-12-07T05:44:19;19.93;;;12.53;;
45522;SDS011;31254;51.680;5.394;2023-12-07T05:46:49;20.33;;;12.83;;
45522;SDS011;31254;51.680;5.394;2023-12-07T05:49:15;20.83;;;12.67;;
45522;SDS011;31254;51.680;5.394;2023-12-07T05:51:42;20.43;;;12.97;;
45522;SDS011;31254;51.680;5.394;2023-12-07T05:54:09;20.03;;;11.77;;
45522;SDS011;31254;51.680;5.394;2023-12-07T05:56:35;21.10;;;13.20;;
45522;SDS011;31254;51.680;5.394;2023-12-07T05:59:02;21.73;;;13.27;;
45522;SDS011;31254;51.680;5.394;2023-12-07T06:01:28;19.77;;;12.53;;
45522;SDS011;31254;51.680;5.394;2023-12-07T06:03:55;19.77;;;12.27;;
45522;SDS011;31254;51.680;5.394;2023-12-07T06:06:22;19.30;;;12.47;;
45522;SDS011;31254;51.680;5.394;2023-12-07T06:08:48;22.67;;;12.87;;
45522;SDS011;31254;51.680;5.394;2023-12-07T06:11:15;20.23;;;12.67;;
45522;SDS011;31254;51.680;5.394;2023-12-07T06:13:41;20.07;;;12.67;;
45522;SDS011;31254;51.680;5.394;2023-12-07T06:16:11;20.23;;;12.80;;
45522;SDS011;31254;51.680;5.394;2023-12-07T06:18:39;23.13;;;13.17;;
45522;SDS011;31254;51.680;5.394;2023-12-07T06:21:07;19.97;;;12.43;;
45522;SDS011;31254;51.680;5.394;2023-12-07T06:23:33;22.37;;;12.40;;
45522;SDS011;31254;51.680;5.394;2023-12-07T06:26:01;19.13;;;12.07;;
45522;SDS011;31254;51.680;5.394;2023-12-07T06:28:28;17.57;;;11.87;;
45522;SDS011;31254;51.680;5.394;2023-12-07T06:30:55;18.03;;;11.10;;
45522;SDS011;31254;51.680;5.394;2023-12-07T06:33:23;21.03;;;12.47;;
45522;SDS011;31254;51.680;5.394;2023-12-07T06:35:50;19.50;;;11.80;;
45522;SDS011;31254;51.680;5.394;2023-12-07T06:38:17;20.90;;;11.77;;
45522;SDS011;31254;51.680;5.394;2023-12-07T06:40:46;20.00;;;12.17;;
45522;SDS011;31254;51.680;5.394;2023-12-07T06:43:13;19.90;;;12.50;;
45522;SDS011;31254;51.680;5.394;2023-12-07T06:45:40;19.30;;;11.33;;
45522;SDS011;31254;51.680;5.394;2023-12-07T06:48:07;20.80;;;11.83;;
45522;SDS011;31254;51.680;5.394;2023-12-07T06:50:34;20.27;;;12.03;;
45522;SDS011;31254;51.680;5.394;2023-12-07T06:53:01;19.77;;;11.93;;
45522;SDS011;31254;51.680;5.394;2023-12-07T06:55:27;19.30;;;11.63;;
45522;SDS011;31254;51.680;5.394;2023-12-07T06:57:54;21.17;;;11.97;;
45522;SDS011;31254;51.680;5.394;2023-12-07T07:00:21;18.07;;;11.03;;
45522;SDS011;31254;51.680;5.394;2023-12-07T07:02:48;17.20;;;10.43;;
45522;SDS011;31254;51.680;5.394;2023-12-07T07:05:15;18.77;;;11.10;;
45522;SDS011;31254;51.680;5.394;2023-12-07T07:07:42;18.70;;;11.83;;
45522;SDS011;31254;51.680;5.394;2023-12-07T07:10:09;19.53;;;11.33;;
45522;SDS011;31254;51.680;5.394;2023-12-07T07:12:36;20.17;;;11.53;;
45522;SDS011;31254;51.680;5.394;2023-12-07T07:15:03;17.73;;;10.97;;
45522;SDS011;31254;51.680;5.394;2023-12-07T07:17:30;17.73;;;10.27;;
45522;SDS011;31254;51.680;5.394;2023-12-07T07:19:58;17.17;;;10.17;;
45522;SDS011;31254;51.680;5.394;2023-12-07T07:22:25;16.53;;;10.33;;
45522;SDS011;31254;51.680;5.394;2023-12-07T07:24:52;19.77;;;10.90;;
45522;SDS011;31254;51.680;5.394;2023-12-07T07:27:18;20.07;;;10.87;;
45522;SDS011;31254;51.680;5.394;2023-12-07T07:29:45;17.73;;;10.50;;
45522;SDS011;31254;51.680;5.394;2023-12-07T07:32:12;17.30;;;10.07;;
45522;SDS011;31254;51.680;5.394;2023-12-07T07:34:39;17.60;;;10.53;;
45522;SDS011;31254;51.680;5.394;2023-12-07T07:37:06;16.67;;;9.33;;
45522;SDS011;31254;51.680;5.394;2023-12-07T07:39:33;18.50;;;11.00;;
45522;SDS011;31254;51.680;5.394;2023-12-07T07:42:01;15.90;;;9.43;;
45522;SDS011;31254;51.680;5.394;2023-12-07T07:44:27;18.15;;;12.65;;
45522;SDS011;31254;51.680;5.394;2023-12-07T07:46:54;17.53;;;10.47;;
45522;SDS011;31254;51.680;5.394;2023-12-07T07:49:20;15.83;;;10.23;;
45522;SDS011;31254;51.680;5.394;2023-12-07T07:51:47;17.07;;;10.30;;
45522;SDS011;31254;51.680;5.394;2023-12-07T07:54:13;16.10;;;9.30;;
45522;SDS011;31254;51.680;5.394;2023-12-07T07:56:40;19.17;;;10.57;;
45522;SDS011;31254;51.680;5.394;2023-12-07T07:59:06;16.27;;;9.90;;
45522;SDS011;31254;51.680;5.394;2023-12-07T08:01:33;16.30;;;9.47;;
45522;SDS011;31254;51.680;5.394;2023-12-07T08:04:00;15.67;;;9.20;;
45522;SDS011;31254;51.680;5.394;2023-12-07T08:06:26;14.33;;;8.57;;
45522;SDS011;31254;51.680;5.394;2023-12-07T08:08:53;15.60;;;8.93;;
45522;SDS011;31254;51.680;5.394;2023-12-07T08:11:19;15.27;;;9.17;;
45522;SDS011;31254;51.680;5.394;2023-12-07T08:13:46;16.37;;;9.53;;
45522;SDS011;31254;51.680;5.394;2023-12-07T08:16:13;14.97;;;8.53;;
45522;SDS011;31254;51.680;5.394;2023-12-07T08:18:39;14.37;;;8.47;;
45522;SDS011;31254;51.680;5.394;2023-12-07T08:21:06;15.77;;;9.03;;
45522;SDS011;31254;51.680;5.394;2023-12-07T08:23:34;15.43;;;8.83;;
45522;SDS011;31254;51.680;5.394;2023-12-07T08:26:02;15.17;;;8.67;;
45522;SDS011;31254;51.680;5.394;2023-12-07T08:28:28;15.83;;;8.97;;
45522;SDS011;31254;51.680;5.394;2023-12-07T08:30:55;14.77;;;9.27;;
45522;SDS011;31254;51.680;5.394;2023-12-07T08:33:21;15.03;;;8.83;;
45522;SDS011;31254;51.680;5.394;2023-12-07T08:35:48;15.90;;;9.43;;
45522;SDS011;31254;51.680;5.394;2023-12-07T08:38:20;13.10;;;8.37;;
45522;SDS011;31254;51.680;5.394;2023-12-07T08:40:48;15.03;;;8.63;;
45522;SDS011;31254;51.680;5.394;2023-12-07T08:43:14;14.60;;;8.80;;
45522;SDS011;31254;51.680;5.394;2023-12-07T08:45:41;16.03;;;9.23;;
45522;SDS011;31254;51.680;5.394;2023-12-07T08:48:08;15.17;;;8.90;;
45522;SDS011;31254;51.680;5.394;2023-12-07T08:50:34;16.97;;;10.33;;
45522;SDS011;31254;51.680;5.394;2023-12-07T08:53:01;18.83;;;9.60;;
45522;SDS011;31254;51.680;5.394;2023-12-07T08:55:30;15.67;;;8.90;;
45522;SDS011;31254;51.680;5.394;2023-12-07T08:57:57;15.97;;;9.63;;
45522;SDS011;31254;51.680;5.394;2023-12-07T09:00:25;15.30;;;9.37;;
45522;SDS011;31254;51.680;5.394;2023-12-07T09:02:52;16.50;;;9.90;;
45522;SDS011;31254;51.680;5.394;2023-12-07T09:05:19;15.07;;;9.40;;
45522;SDS011;31254;51.680;5.394;2023-12-07T09:07:46;17.00;;;9.73;;
45522;SDS011;31254;51.680;5.394;2023-12-07T09:10:13;16.97;;;9.50;;
45522;SDS011;31254;51.680;5.394;2023-12-07T09:12:39;16.80;;;9.23;;
45522;SDS011;31254;51.680;5.394;2023-12-07T09:15:06;16.77;;;9.30;;
45522;SDS011;31254;51.680;5.394;2023-12-07T09:17:34;17.00;;;9.80;;
45522;SDS011;31254;51.680;5.394;2023-12-07T09:20:01;16.80;;;9.67;;
45522;SDS011;31254;51.680;5.394;2023-12-07T09:22:28;17.73;;;10.40;;
45522;SDS011;31254;51.680;5.394;2023-12-07T09:25:03;17.73;;;10.43;;
45522;SDS011;31254;51.680;5.394;2023-12-07T09:27:30;20.30;;;11.13;;
45522;SDS011;31254;51.680;5.394;2023-12-07T09:29:59;17.43;;;10.20;;
45522;SDS011;31254;51.680;5.394;2023-12-07T09:32:25;16.07;;;9.30;;
45522;SDS011;31254;51.680;5.394;2023-12-07T09:35:02;18.13;;;9.83;;
45522;SDS011;31254;51.680;5.394;2023-12-07T09:37:30;19.30;;;10.27;;
45522;SDS011;31254;51.680;5.394;2023-12-07T09:39:56;17.63;;;10.23;;
45522;SDS011;31254;51.680;5.394;2023-12-07T09:42:24;18.13;;;10.20;;
45522;SDS011;31254;51.680;5.394;2023-12-07T09:44:57;17.60;;;10.17;;
45522;SDS011;31254;51.680;5.394;2023-12-07T09:47:25;18.40;;;10.40;;
45522;SDS011;31254;51.680;5.394;2023-12-07T09:50:02;16.07;;;9.87;;
45522;SDS011;31254;51.680;5.394;2023-12-07T09:52:29;19.87;;;9.77;;
45522;SDS011;31254;51.680;5.394;2023-12-07T09:54:57;18.00;;;10.10;;
45522;SDS011;31254;51.680;5.394;2023-12-07T09:57:24;17.73;;;10.73;;
45522;SDS011;31254;51.680;5.394;2023-12-07T09:59:55;19.50;;;9.43;;
45522;SDS011;31254;51.680;5.394;2023-12-07T10:02:22;18.00;;;9.43;;
45522;SDS011;31254;51.680;5.394;2023-12-07T10:05:02;17.97;;;10.30;;
45522;SDS011;31254;51.680;5.394;2023-12-07T10:07:36;18.60;;;10.10;;
45522;SDS011;31254;51.680;5.394;2023-12-07T10:10:05;18.07;;;10.00;;
45522;SDS011;31254;51.680;5.394;2023-12-07T10:12:35;18.97;;;9.97;;
45522;SDS011;31254;51.680;5.394;2023-12-07T10:15:13;19.73;;;10.43;;
45522;SDS011;31254;51.680;5.394;2023-12-07T10:17:48;18.67;;;10.53;;
45522;SDS011;31254;51.680;5.394;2023-12-07T10:20:17;22.30;;;11.20;;
45522;SDS011;31254;51.680;5.394;2023-12-07T10:23:09;18.80;;;10.23;;
45522;SDS011;31254;51.680;5.394;2023-12-07T10:25:39;19.20;;;11.07;;
45522;SDS011;31254;51.680;5.394;2023-12-07T10:28:08;20.80;;;11.83;;
45522;SDS011;31254;51.680;5.394;2023-12-07T10:30:40;20.93;;;11.30;;
45522;SDS011;31254;51.680;5.394;2023-12-07T10:33:10;20.30;;;11.07;;
45522;SDS011;31254;51.680;5.394;2023-12-07T10:35:40;21.27;;;10.90;;
45522;SDS011;31254;51.680;5.394;2023-12-07T10:38:10;20.37;;;11.07;;
45522;SDS011;31254;51.680;5.394;2023-12-07T10:40:39;21.60;;;11.63;;
45522;SDS011;31254;51.680;5.394;2023-12-07T10:43:06;21.77;;;11.10;;
45522;SDS011;31254;51.680;5.394;2023-12-07T10:45:34;22.83;;;12.27;;
45522;SDS011;31254;51.680;5.394;2023-12-07T10:48:05;20.83;;;11.73;;
45522;SDS011;31254;51.680;5.394;2023-12-07T10:50:52;23.43;;;12.47;;
45522;SDS011;31254;51.680;5.394;2023-12-07T10:53:21;23.20;;;13.27;;
45522;SDS011;31254;51.680;5.394;2023-12-07T10:55:57;22.23;;;12.50;;
45522;SDS011;31254;51.680;5.394;2023-12-07T10:58:26;21.57;;;11.93;;
45522;SDS011;31254;51.680;5.394;2023-12-07T11:00:54;23.57;;;12.60;;
45522;SDS011;31254;51.680;5.394;2023-12-07T11:03:22;22.57;;;11.97;;
45522;SDS011;31254;51.680;5.394;2023-12-07T11:05:50;22.00;;;12.17;;
45522;SDS011;31254;51.680;5.394;2023-12-07T11:11:22;20.17;;;11.40;;
45522;SDS011;31254;51.680;5.394;2023-12-07T11:14:05;18.67;;;11.23;;
45522;SDS011;31254;51.680;5.394;2023-12-07T11:16:37;20.00;;;11.80;;
45522;SDS011;31254;51.680;5.394;2023-12-07T11:19:23;20.77;;;11.87;;
45522;SDS011;31254;51.680;5.394;2023-12-07T11:22:04;21.83;;;12.07;;
45522;SDS011;31254;51.680;5.394;2023-12-07T11:24:32;20.80;;;12.23;;
45522;SDS011;31254;51.680;5.394;2023-12-07T11:26:59;20.23;;;11.57;;
45522;SDS011;31254;51.680;5.394;2023-12-07T11:29:27;21.37;;;12.13;;
45522;SDS011;31254;51.680;5.394;2023-12-07T11:31:56;22.47;;;12.43;;
45522;SDS011;31254;51.680;5.394;2023-12-07T11:34:36;22.43;;;12.07;;
45522;SDS011;31254;51.680;5.394;2023-12-07T11:37:03;24.17;;;13.37;;
45522;SDS011;31254;51.680;5.394;2023-12-07T11:39:34;20.47;;;11.70;;
45522;SDS011;31254;51.680;5.394;2023-12-07T11:42:20;26.00;;;12.87;;
45522;SDS011;31254;51.680;5.394;2023-12-07T11:44:49;21.27;;;12.10;;
45522;SDS011;31254;51.680;5.394;2023-12-07T11:47:17;20.20;;;12.20;;
45522;SDS011;31254;51.680;5.394;2023-12-07T11:49:45;21.40;;;12.57;;
45522;SDS011;31254;51.680;5.394;2023-12-07T11:52:13;23.43;;;13.47;;
45522;SDS011;31254;51.680;5.394;2023-12-07T11:54:48;21.23;;;12.23;;
45522;SDS011;31254;51.680;5.394;2023-12-07T11:57:16;25.67;;;14.07;;
45522;SDS011;31254;51.680;5.394;2023-12-07T11:59:43;25.50;;;13.13;;
45522;SDS011;31254;51.680;5.394;2023-12-07T12:02:11;25.70;;;14.20;;
45522;SDS011;31254;51.680;5.394;2023-12-07T12:04:42;22.30;;;13.10;;
45522;SDS011;31254;51.680;5.394;2023-12-07T12:07:09;24.60;;;14.17;;
45522;SDS011;31254;51.680;5.394;2023-12-07T12:09:36;20.77;;;13.50;;
45522;SDS011;31254;51.680;5.394;2023-12-07T12:12:02;21.17;;;13.33;;
45522;SDS011;31254;51.680;5.394;2023-12-07T12:14:29;22.50;;;13.77;;
45522;SDS011;31254;51.680;5.394;2023-12-07T12:16:56;24.00;;;14.20;;
45522;SDS011;31254;51.680;5.394;2023-12-07T12:19:24;26.75;;;14.02;;
45522;SDS011;31254;51.680;5.394;2023-12-07T12:22:00;21.20;;;13.43;;
45522;SDS011;31254;51.680;5.394;2023-12-07T12:24:34;21.53;;;13.60;;
45522;SDS011;31254;51.680;5.394;2023-12-07T12:27:02;22.73;;;13.83;;
45522;SDS011;31254;51.680;5.394;2023-12-07T12:29:30;24.02;;;14.15;;
45522;SDS011;31254;51.680;5.394;2023-12-07T12:32:03;23.10;;;13.95;;
45522;SDS011;31254;51.680;5.394;2023-12-07T12:34:32;21.35;;;13.60;;
45522;SDS011;31254;51.680;5.394;2023-12-07T12:37:01;21.10;;;13.20;;
45522;SDS011;31254;51.680;5.394;2023-12-07T12:39:29;22.63;;;13.48;;
45522;SDS011;31254;51.680;5.394;2023-12-07T12:41:59;24.63;;;14.45;;
45522;SDS011;31254;51.680;5.394;2023-12-07T12:44:27;23.95;;;14.13;;
45522;SDS011;31254;51.680;5.394;2023-12-07T12:47:04;24.30;;;14.32;;
45522;SDS011;31254;51.680;5.394;2023-12-07T12:49:37;27.60;;;15.73;;
45522;SDS011;31254;51.680;5.394;2023-12-07T12:52:09;24.48;;;15.90;;
45522;SDS011;31254;51.680;5.394;2023-12-07T12:54:36;36.87;;;16.30;;
45522;SDS011;31254;51.680;5.394;2023-12-07T12:57:05;26.73;;;15.50;;
45522;SDS011;31254;51.680;5.394;2023-12-07T12:59:33;24.77;;;15.47;;
45522;SDS011;31254;51.680;5.394;2023-12-07T13:01:59;23.43;;;14.80;;
45522;SDS011;31254;51.680;5.394;2023-12-07T13:04:26;27.60;;;15.53;;
45522;SDS011;31254;51.680;5.394;2023-12-07T13:06:53;24.10;;;14.70;;
45522;SDS011;31254;51.680;5.394;2023-12-07T13:09:20;24.27;;;14.70;;
45522;SDS011;31254;51.680;5.394;2023-12-07T13:11:47;24.52;;;14.77;;
45522;SDS011;31254;51.680;5.394;2023-12-07T13:14:15;26.17;;;15.52;;
45522;SDS011;31254;51.680;5.394;2023-12-07T13:16:43;26.35;;;14.70;;
45522;SDS011;31254;51.680;5.394;2023-12-07T13:19:09;26.73;;;15.10;;
45522;SDS011;31254;51.680;5.394;2023-12-07T13:21:36;25.08;;;14.63;;
45522;SDS011;31254;51.680;5.394;2023-12-07T13:24:03;23.85;;;14.93;;
45522;SDS011;31254;51.680;5.394;2023-12-07T13:26:31;26.98;;;14.25;;
45522;SDS011;31254;51.680;5.394;2023-12-07T13:28:57;25.08;;;15.05;;
45522;SDS011;31254;51.680;5.394;2023-12-07T13:31:24;24.20;;;15.10;;
45522;SDS011;31254;51.680;5.394;2023-12-07T13:33:51;26.20;;;14.77;;
45522;SDS011;31254;51.680;5.394;2023-12-07T13:36:22;29.53;;;20.13;;
45522;SDS011;31254;51.680;5.394;2023-12-07T13:38:51;25.63;;;17.02;;
45522;SDS011;31254;51.680;5.394;2023-12-07T13:41:18;28.08;;;17.05;;
45522;SDS011;31254;51.680;5.394;2023-12-07T13:43:46;24.90;;;16.15;;
45522;SDS011;31254;51.680;5.394;2023-12-07T13:46:15;24.83;;;16.17;;
45522;SDS011;31254;51.680;5.394;2023-12-07T13:48:43;24.70;;;15.75;;
45522;SDS011;31254;51.680;5.394;2023-12-07T13:51:09;28.23;;;15.30;;
45522;SDS011;31254;51.680;5.394;2023-12-07T13:53:36;26.10;;;15.85;;
45522;SDS011;31254;51.680;5.394;2023-12-07T13:56:04;25.13;;;15.90;;
45522;SDS011;31254;51.680;5.394;2023-12-07T13:58:34;25.77;;;16.08;;
45522;SDS011;31254;51.680;5.394;2023-12-07T14:01:05;24.45;;;15.48;;
45522;SDS011;31254;51.680;5.394;2023-12-07T14:03:33;25.15;;;16.20;;
45522;SDS011;31254;51.680;5.394;2023-12-07T14:06:00;27.75;;;15.73;;
45522;SDS011;31254;51.680;5.394;2023-12-07T14:08:37;28.52;;;16.15;;
45522;SDS011;31254;51.680;5.394;2023-12-07T14:11:03;26.95;;;17.05;;
45522;SDS011;31254;51.680;5.394;2023-12-07T14:13:30;25.65;;;16.10;;
45522;SDS011;31254;51.680;5.394;2023-12-07T14:15:58;28.95;;;17.40;;
45522;SDS011;31254;51.680;5.394;2023-12-07T14:18:38;25.92;;;15.48;;
45522;SDS011;31254;51.680;5.394;2023-12-07T14:21:05;28.63;;;16.58;;
45522;SDS011;31254;51.680;5.394;2023-12-07T14:23:48;26.23;;;15.32;;
45522;SDS011;31254;51.680;5.394;2023-12-07T14:26:21;27.77;;;17.42;;
45522;SDS011;31254;51.680;5.394;2023-12-07T14:28:47;28.00;;;16.45;;
45522;SDS011;31254;51.680;5.394;2023-12-07T14:31:14;30.83;;;16.92;;
45522;SDS011;31254;51.680;5.394;2023-12-07T14:33:43;27.83;;;16.50;;
45522;SDS011;31254;51.680;5.394;2023-12-07T14:36:10;28.17;;;15.93;;
45522;SDS011;31254;51.680;5.394;2023-12-07T14:38:40;31.60;;;15.50;;
45522;SDS011;31254;51.680;5.394;2023-12-07T14:41:07;26.67;;;16.00;;